createdAt,value
2023-04-28T00:01:14.376Z,77.09
2023-04-28T00:03:41.471Z,78.02
2023-04-28T00:06:08.617Z,76.77
2023-04-28T00:08:35.208Z,76.92
2023-04-28T00:11:01.820Z,75.82
2023-04-28T00:13:28.341Z,76.71
2023-04-28T00:15:55.050Z,79.42
2023-04-28T00:18:22.142Z,77.33
2023-04-28T00:20:48.754Z,78.49
2023-04-28T00:23:16.054Z,76.75
2023-04-28T00:25:42.575Z,76.73
2023-04-28T00:28:09.075Z,77.08
2023-04-28T00:30:35.704Z,76.11
2023-04-28T00:33:02.268Z,77.00
2023-04-28T00:35:28.776Z,78.54
2023-04-28T00:37:55.502Z,76.51
2023-04-28T00:40:22.205Z,78.02
2023-04-28T00:42:48.837Z,77.19
2023-04-28T00:45:15.677Z,75.41
2023-04-28T00:47:42.502Z,78.42
2023-04-28T00:50:10.649Z,79.34
2023-04-28T00:52:39.170Z,78.63
2023-04-28T00:55:07.045Z,77.78
2023-04-28T00:57:34.343Z,78.35
2023-04-28T01:00:01.344Z,78.62
2023-04-28T01:02:30.193Z,77.37
2023-04-28T01:04:58.232Z,77.72
2023-04-28T01:07:24.847Z,76.60
2023-04-28T01:09:51.748Z,76.99
2023-04-28T01:12:18.298Z,76.63
2023-04-28T01:14:45.279Z,76.13
2023-04-28T01:17:12.212Z,75.40
2023-04-28T01:19:38.939Z,75.82
2023-04-28T01:22:05.517Z,76.72
2023-04-28T01:24:32.099Z,76.96
2023-04-28T01:26:58.687Z,76.16
2023-04-28T01:29:25.658Z,75.50
2023-04-28T01:31:52.247Z,75.45
2023-04-28T01:34:18.893Z,75.18
2023-04-28T01:36:46.115Z,75.28
2023-04-28T01:39:12.656Z,75.35
2023-04-28T01:41:39.213Z,75.92
2023-04-28T01:44:07.578Z,74.11
2023-04-28T01:46:34.892Z,75.19
2023-04-28T01:49:01.747Z,73.41
2023-04-28T01:51:28.309Z,77.97
2023-04-28T01:53:54.856Z,77.41
2023-04-28T01:56:21.501Z,76.77
2023-04-28T01:58:48.042Z,76.32
2023-04-28T02:01:14.664Z,75.60
2023-04-28T02:03:41.420Z,76.01
2023-04-28T02:06:08.103Z,77.53
2023-04-28T02:08:34.722Z,76.69
2023-04-28T02:11:01.804Z,79.40
2023-04-28T02:13:28.488Z,78.04
2023-04-28T02:15:55.107Z,79.27
2023-04-28T02:18:24.711Z,79.93
2023-04-28T02:20:51.465Z,81.33
2023-04-28T02:23:18.055Z,81.00
2023-04-28T02:25:44.624Z,82.67
2023-04-28T02:28:11.220Z,81.84
2023-04-28T02:30:37.708Z,81.19
2023-04-28T02:33:04.413Z,81.46
2023-04-28T02:35:31.248Z,81.00
2023-04-28T02:37:57.822Z,79.87
2023-04-28T02:40:24.474Z,79.55
2023-04-28T02:42:51.099Z,79.61
2023-04-28T02:45:17.742Z,81.33
2023-04-28T02:47:44.323Z,84.18
2023-04-28T02:50:11.379Z,83.32
2023-04-28T02:52:38.223Z,83.65
2023-04-28T02:55:05.428Z,83.77
2023-04-28T02:57:31.949Z,84.56
2023-04-28T02:59:58.567Z,84.41
2023-04-28T03:02:25.275Z,84.81
2023-04-28T03:04:52.038Z,83.05
2023-04-28T03:07:18.687Z,82.98
2023-04-28T03:09:46.371Z,82.21
2023-04-28T03:12:12.865Z,85.08
2023-04-28T03:14:39.334Z,87.18
2023-04-28T03:17:05.900Z,87.90
2023-04-28T03:19:33.418Z,87.59
2023-04-28T03:21:59.968Z,86.29
2023-04-28T03:24:26.814Z,87.96
2023-04-28T03:26:53.577Z,89.26
2023-04-28T03:29:20.257Z,89.18
2023-04-28T03:31:46.790Z,88.66
2023-04-28T03:34:13.362Z,88.07
2023-04-28T03:36:39.879Z,87.34
2023-04-28T03:39:06.391Z,87.50
2023-04-28T03:41:33.045Z,88.69
2023-04-28T03:43:59.512Z,87.11
2023-04-28T03:46:26.246Z,85.91
2023-04-28T03:48:53.637Z,87.41
2023-04-28T03:51:20.267Z,87.36
2023-04-28T03:53:46.937Z,88.43
2023-04-28T03:56:13.479Z,89.61
2023-04-28T03:58:40.088Z,89.71
2023-04-28T04:01:06.584Z,85.88
2023-04-28T04:03:33.292Z,84.85
2023-04-28T04:06:00.015Z,85.58
2023-04-28T04:08:26.704Z,83.43
2023-04-28T04:10:54.827Z,84.96
2023-04-28T04:13:22.511Z,83.98
2023-04-28T04:15:50.577Z,85.38
2023-04-28T04:18:17.124Z,84.48
2023-04-28T04:20:43.629Z,84.42
2023-04-28T04:23:10.198Z,83.19
2023-04-28T04:25:36.810Z,83.35
2023-04-28T04:28:03.627Z,83.99
2023-04-28T04:30:30.133Z,84.79
2023-04-28T04:32:56.758Z,83.06
2023-04-28T04:35:23.482Z,83.66
2023-04-28T04:37:51.126Z,83.53
2023-04-28T04:40:17.648Z,83.97
2023-04-28T04:42:44.205Z,83.60
2023-04-28T04:45:11.019Z,84.77
2023-04-28T04:47:37.973Z,84.42
2023-04-28T04:50:05.437Z,84.16
2023-04-28T04:52:32.109Z,86.08
2023-04-28T04:54:58.751Z,84.23
2023-04-28T04:57:25.949Z,81.96
2023-04-28T04:59:52.512Z,81.89
2023-04-28T05:02:19.188Z,80.63
2023-04-28T05:04:46.148Z,81.57
2023-04-28T05:07:13.846Z,81.33
2023-04-28T05:09:40.404Z,80.39
2023-04-28T05:12:07.089Z,81.15
2023-04-28T05:14:33.644Z,81.15
2023-04-28T05:17:00.450Z,76.87
2023-04-28T05:19:27.035Z,77.41
2023-04-28T05:21:55.073Z,78.15
2023-04-28T05:24:23.832Z,78.42
2023-04-28T05:26:51.927Z,76.05
2023-04-28T05:29:18.510Z,76.77
2023-04-28T05:31:45.084Z,75.44
2023-04-28T05:34:11.765Z,76.18
2023-04-28T05:36:38.421Z,75.48
2023-04-28T05:39:05.049Z,75.63
2023-04-28T05:41:31.628Z,77.16
2023-04-28T05:43:58.303Z,76.19
2023-04-28T05:46:30.646Z,75.89
2023-04-28T05:48:58.185Z,75.72
2023-04-28T05:51:24.993Z,75.44
2023-04-28T05:53:51.645Z,75.63
2023-04-28T05:56:18.470Z,75.56
2023-04-28T05:58:45.131Z,74.14
2023-04-28T06:01:11.964Z,74.42
2023-04-28T06:03:38.799Z,74.69
2023-04-28T06:06:09.605Z,74.26
2023-04-28T06:08:37.170Z,76.18
2023-04-28T06:11:04.010Z,75.54
2023-04-28T06:13:30.507Z,73.86
2023-04-28T06:15:57.336Z,74.26
2023-04-28T06:18:24.418Z,74.97
2023-04-28T06:20:51.108Z,75.47
2023-04-28T06:23:17.742Z,75.73
2023-04-28T06:25:44.566Z,73.42
2023-04-28T06:28:13.406Z,72.49
2023-04-28T06:30:39.998Z,73.84
2023-04-28T06:33:06.746Z,73.84
2023-04-28T06:35:36.515Z,73.84
2023-04-28T06:38:03.773Z,74.94
2023-04-28T06:40:30.384Z,73.54
2023-04-28T06:42:57.023Z,74.03
2023-04-28T06:45:23.722Z,73.85
2023-04-28T06:47:51.190Z,74.73
2023-04-28T06:50:17.818Z,74.94
2023-04-28T06:52:44.611Z,74.47
2023-04-28T06:55:16.091Z,72.49
2023-04-28T06:57:43.082Z,71.54
2023-04-28T07:00:10.896Z,71.52
2023-04-28T07:02:37.904Z,72.58
2023-04-28T07:05:05.339Z,70.47
2023-04-28T07:07:32.094Z,70.62
2023-04-28T07:09:59.157Z,71.72
2023-04-28T07:12:25.802Z,72.39
2023-04-28T07:14:52.502Z,71.20
2023-04-28T07:17:19.114Z,72.78
2023-04-28T07:19:45.813Z,73.94
2023-04-28T07:22:12.642Z,74.16
2023-04-28T07:24:39.487Z,72.19
2023-04-28T07:27:06.222Z,70.93
2023-04-28T07:29:34.006Z,70.78
2023-04-28T07:32:08.762Z,72.83
2023-04-28T07:34:35.957Z,71.83
2023-04-28T07:37:03.194Z,72.71
2023-04-28T07:39:32.046Z,72.48
2023-04-28T07:41:59.246Z,75.26
2023-04-28T07:44:25.938Z,75.86
2023-04-28T07:46:53.657Z,73.65
2023-04-28T07:49:20.511Z,71.62
2023-04-28T07:51:47.354Z,73.93
2023-04-28T07:54:15.127Z,73.07
2023-04-28T07:56:42.016Z,73.31
2023-04-28T07:59:08.580Z,73.46
2023-04-28T08:01:35.166Z,74.66
2023-04-28T08:04:02.090Z,74.24
2023-04-28T08:06:29.068Z,75.22
2023-04-28T08:08:56.028Z,73.84
2023-04-28T08:11:22.831Z,72.23
2023-04-28T08:13:49.599Z,74.68
2023-04-28T08:16:16.715Z,77.15
2023-04-28T08:18:43.497Z,77.87
2023-04-28T08:21:10.120Z,77.33
2023-04-28T08:23:36.707Z,74.95
2023-04-28T08:26:04.163Z,74.62
2023-04-28T08:28:30.938Z,74.08
2023-04-28T08:30:58.625Z,72.66
2023-04-28T08:33:25.156Z,74.12
2023-04-28T08:35:51.782Z,70.27
2023-04-28T08:38:18.469Z,72.68
2023-04-28T08:40:45.502Z,72.16
2023-04-28T08:43:14.949Z,73.84
2023-04-28T08:45:43.100Z,72.15
2023-04-28T08:48:21.870Z,72.32
2023-04-28T08:50:53.437Z,75.28
2023-04-28T08:53:25.364Z,76.50
2023-04-28T08:55:56.493Z,74.39
2023-04-28T08:58:25.004Z,75.92
2023-04-28T09:00:54.773Z,74.32
2023-04-28T09:03:22.000Z,73.52
2023-04-28T09:05:49.981Z,75.05
2023-04-28T09:08:16.571Z,77.30
2023-04-28T09:10:43.185Z,74.62
2023-04-28T09:13:09.736Z,80.01
2023-04-28T09:15:38.327Z,80.50
2023-04-28T09:18:07.122Z,80.13
2023-04-28T09:20:35.612Z,81.26
2023-04-28T09:23:17.614Z,78.57
2023-04-28T09:26:03.887Z,76.86
2023-04-28T09:28:31.802Z,78.67
2023-04-28T09:30:58.715Z,78.35
2023-04-28T09:33:26.005Z,78.95
2023-04-28T09:35:53.600Z,77.75
2023-04-28T09:38:21.860Z,80.69
2023-04-28T09:40:57.480Z,78.57
2023-04-28T09:43:32.314Z,78.56
2023-04-28T09:46:01.671Z,77.93
2023-04-28T09:48:32.368Z,75.48
2023-04-28T09:51:00.885Z,72.82
2023-04-28T09:53:28.638Z,76.38
2023-04-28T09:55:57.432Z,76.02
2023-04-28T09:58:25.837Z,74.50
2023-04-28T10:00:54.953Z,76.62
2023-04-28T10:03:25.096Z,77.93
2023-04-28T10:05:54.388Z,76.16
2023-04-28T10:08:22.721Z,79.46
2023-04-28T10:10:50.925Z,79.20
2023-04-28T10:13:18.069Z,81.32
2023-04-28T10:15:44.959Z,79.68
2023-04-28T10:18:15.579Z,78.95
2023-04-28T10:20:57.682Z,78.07
2023-04-28T10:23:47.044Z,78.92
2023-04-28T10:26:15.558Z,76.83
2023-04-28T10:28:47.361Z,79.42
2023-04-28T10:31:16.222Z,78.92
2023-04-28T10:33:43.421Z,78.93
2023-04-28T10:36:10.316Z,78.74
2023-04-28T10:39:09.880Z,78.31
2023-04-28T10:41:36.557Z,78.07
2023-04-28T10:44:28.945Z,78.08
2023-04-28T10:47:04.697Z,79.64
2023-04-28T10:49:58.937Z,80.53
2023-04-28T10:52:38.074Z,78.14
2023-04-28T10:55:33.759Z,75.66
2023-04-28T10:58:15.761Z,74.69
2023-04-28T11:00:45.230Z,70.23
2023-04-28T11:03:41.194Z,68.91
2023-04-28T11:06:28.405Z,69.51
2023-04-28T11:09:15.080Z,65.31
2023-04-28T11:12:00.435Z,66.95
2023-04-28T11:14:30.232Z,63.90
2023-04-28T11:17:02.975Z,64.29
2023-04-28T11:19:41.084Z,65.21
2023-04-28T11:22:21.894Z,62.84
2023-04-28T11:24:57.434Z,67.00
2023-04-28T11:27:25.550Z,67.63
2023-04-28T11:29:52.119Z,66.88
2023-04-28T11:32:33.367Z,72.37
2023-04-28T11:35:00.841Z,69.41
2023-04-28T11:37:27.579Z,67.58
2023-04-28T11:39:54.664Z,66.92
2023-04-28T11:42:21.428Z,66.12
2023-04-28T11:44:55.109Z,63.91
2023-04-28T11:47:33.673Z,60.94
2023-04-28T11:50:02.095Z,60.93
2023-04-28T11:52:28.810Z,61.27
2023-04-28T11:55:03.055Z,62.71
2023-04-28T11:57:29.606Z,61.52
2023-04-28T12:00:14.333Z,60.05
2023-04-28T12:02:41.597Z,59.92
2023-04-28T12:05:09.101Z,63.13
2023-04-28T12:07:45.589Z,64.48
2023-04-28T12:10:16.069Z,64.24
2023-04-28T12:12:50.992Z,63.79
2023-04-28T12:15:20.795Z,63.75
2023-04-28T12:17:48.690Z,63.79
2023-04-28T12:20:42.668Z,65.77
2023-04-28T12:23:09.538Z,64.29
2023-04-28T12:25:46.332Z,65.25
2023-04-28T12:28:12.949Z,60.27
2023-04-28T12:30:42.276Z,60.46
2023-04-28T12:33:29.720Z,58.23
2023-04-28T12:35:58.130Z,60.50
2023-04-28T12:38:25.548Z,58.53
2023-04-28T12:40:52.471Z,64.38
2023-04-28T12:43:19.416Z,56.38
2023-04-28T12:45:45.928Z,55.15
2023-04-28T12:48:12.543Z,55.56
2023-04-28T12:50:39.144Z,56.90
2023-04-28T12:53:06.248Z,56.74
2023-04-28T12:55:33.178Z,52.75
2023-04-28T12:57:59.758Z,51.97
2023-04-28T13:00:26.573Z,54.79
2023-04-28T13:02:53.478Z,52.08
2023-04-28T13:05:20.292Z,53.09
2023-04-28T13:07:47.809Z,55.15
2023-04-28T13:10:14.344Z,56.99
2023-04-28T13:12:41.601Z,60.25
2023-04-28T13:15:08.964Z,58.52
2023-04-28T13:17:35.698Z,56.24
2023-04-28T13:20:03.856Z,55.63
2023-04-28T13:22:30.669Z,54.57
2023-04-28T13:24:57.714Z,55.60
2023-04-28T13:27:24.406Z,53.44
2023-04-28T13:29:50.933Z,50.65
2023-04-28T13:32:17.590Z,51.41
2023-04-28T13:34:45.198Z,49.34
2023-04-28T13:37:12.043Z,51.13
2023-04-28T13:39:38.787Z,52.97
2023-04-28T13:42:06.696Z,53.67
2023-04-28T13:44:33.269Z,55.90
2023-04-28T13:47:00.940Z,57.32
2023-04-28T13:49:28.139Z,57.16
2023-04-28T13:51:54.720Z,58.89
2023-04-28T13:54:21.853Z,60.48
2023-04-28T13:56:48.588Z,59.07
2023-04-28T13:59:15.313Z,58.02
2023-04-28T14:01:41.957Z,59.10
2023-04-28T14:04:08.751Z,58.09
2023-04-28T14:06:35.610Z,60.62
2023-04-28T14:09:03.460Z,58.81
2023-04-28T14:11:30.174Z,58.50
2023-04-28T14:13:56.744Z,56.37
2023-04-28T14:16:23.319Z,57.92
2023-04-28T14:18:49.824Z,57.86
2023-04-28T14:21:16.670Z,57.35
2023-04-28T14:23:43.238Z,58.72
2023-04-28T14:26:09.925Z,59.46
2023-04-28T14:28:37.474Z,59.92
2023-04-28T14:31:09.066Z,61.74
2023-04-28T14:33:36.822Z,60.26
2023-04-28T14:36:04.109Z,58.93
2023-04-28T14:38:30.887Z,61.07
2023-04-28T14:40:57.763Z,61.60
2023-04-28T14:43:24.885Z,59.05
2023-04-28T14:45:51.980Z,59.26
2023-04-28T14:48:19.226Z,59.18
2023-04-28T14:50:46.236Z,58.76
2023-04-28T14:53:12.864Z,57.81
2023-04-28T14:55:39.467Z,58.01
2023-04-28T14:58:06.029Z,58.87
2023-04-28T15:00:32.657Z,58.17
2023-04-28T15:02:59.418Z,56.13
2023-04-28T15:05:26.232Z,57.43
2023-04-28T15:07:52.776Z,55.12
2023-04-28T15:10:19.423Z,56.05
2023-04-28T15:12:47.292Z,55.45
2023-04-28T15:15:14.301Z,55.16
2023-04-28T15:17:40.921Z,56.41
2023-04-28T15:20:08.223Z,55.30
2023-04-28T15:22:36.484Z,54.08
2023-04-28T15:25:03.230Z,53.89
2023-04-28T15:27:29.842Z,54.92
2023-04-28T15:29:56.363Z,55.29
2023-04-28T15:32:23.293Z,55.00
2023-04-28T15:34:50.109Z,55.36
2023-04-28T15:37:47.580Z,54.61
2023-04-28T15:40:16.828Z,50.27
2023-04-28T15:42:51.805Z,48.62
2023-04-28T15:45:22.318Z,50.63
2023-04-28T15:47:50.810Z,51.95
2023-04-28T15:50:19.852Z,48.19
2023-04-28T15:52:47.413Z,46.95
2023-04-28T15:55:15.396Z,47.21
2023-04-28T15:57:42.791Z,46.16
2023-04-28T16:00:11.355Z,41.83
2023-04-28T16:02:39.146Z,42.37
2023-04-28T16:05:06.490Z,46.03
2023-04-28T16:07:41.118Z,45.74
2023-04-28T16:10:13.135Z,42.54
2023-04-28T16:12:40.618Z,45.29
2023-04-28T16:15:08.856Z,46.05
2023-04-28T16:17:38.199Z,49.15
2023-04-28T16:20:07.180Z,49.26
2023-04-28T16:22:34.702Z,49.71
2023-04-28T16:25:03.671Z,51.54
2023-04-28T16:27:31.047Z,51.94
2023-04-28T16:29:58.005Z,52.77
2023-04-28T16:32:24.578Z,54.01
2023-04-28T16:34:51.691Z,52.84
2023-04-28T16:37:18.461Z,54.68
2023-04-28T16:39:45.434Z,55.77
2023-04-28T16:42:12.143Z,55.84
2023-04-28T16:44:38.665Z,57.09
2023-04-28T16:47:05.460Z,56.78
2023-04-28T16:49:32.009Z,57.38
2023-04-28T16:52:03.933Z,56.86
2023-04-28T16:54:32.538Z,58.30
2023-04-28T16:57:00.754Z,56.92
2023-04-28T16:59:30.531Z,57.63
2023-04-28T17:01:58.260Z,57.97
2023-04-28T17:04:26.019Z,58.67
2023-04-28T17:06:53.359Z,60.19
2023-04-28T17:09:20.962Z,61.58
2023-04-28T17:11:47.960Z,61.15
2023-04-28T17:14:14.812Z,59.23
2023-04-28T17:16:45.721Z,59.74
2023-04-28T17:19:12.986Z,60.79
2023-04-28T17:21:39.568Z,62.28
2023-04-28T17:24:06.378Z,62.75
2023-04-28T17:26:32.937Z,63.17
2023-04-28T17:29:00.100Z,64.36
2023-04-28T17:31:30.574Z,64.87
2023-04-28T17:33:59.614Z,63.94
2023-04-28T17:36:27.026Z,65.17
2023-04-28T17:38:53.916Z,61.89
2023-04-28T17:41:21.295Z,62.85
2023-04-28T17:43:48.384Z,64.38
2023-04-28T17:46:15.929Z,63.48
2023-04-28T17:48:43.198Z,64.33
2023-04-28T17:51:09.905Z,64.29
2023-04-28T17:53:37.891Z,64.50
2023-04-28T17:56:04.615Z,64.30
2023-04-28T17:58:32.777Z,63.84
2023-04-28T18:01:07.641Z,62.99
2023-04-28T18:03:36.877Z,63.49
2023-04-28T18:06:07.758Z,63.42
2023-04-28T18:08:35.451Z,64.06
2023-04-28T18:11:03.354Z,63.64
2023-04-28T18:13:29.927Z,63.45
2023-04-28T18:15:56.657Z,64.16
2023-04-28T18:18:23.377Z,63.71
2023-04-28T18:20:49.956Z,63.71
2023-04-28T18:23:16.626Z,64.40
2023-04-28T18:25:44.100Z,63.82
2023-04-28T18:28:11.029Z,64.67
2023-04-28T18:30:40.611Z,65.47
2023-04-28T18:33:08.342Z,66.41
2023-04-28T18:35:37.011Z,66.34
2023-04-28T18:38:05.080Z,66.47
2023-04-28T18:40:37.703Z,67.02
2023-04-28T18:43:08.524Z,67.63
2023-04-28T18:45:37.363Z,67.80
2023-04-28T18:48:04.532Z,68.51
2023-04-28T18:50:32.190Z,69.72
2023-04-28T18:53:04.444Z,68.78
2023-04-28T18:55:34.315Z,71.07
2023-04-28T18:58:02.109Z,70.83
2023-04-28T19:00:28.950Z,71.49
2023-04-28T19:02:55.748Z,72.35
2023-04-28T19:05:22.723Z,72.64
2023-04-28T19:07:49.273Z,72.84
2023-04-28T19:10:15.928Z,73.45
2023-04-28T19:12:42.473Z,73.19
2023-04-28T19:15:09.110Z,71.28
2023-04-28T19:17:36.038Z,72.45
2023-04-28T19:20:03.981Z,73.37
2023-04-28T19:22:31.484Z,74.49
2023-04-28T19:24:59.695Z,75.18
2023-04-28T19:27:30.050Z,75.27
2023-04-28T19:29:56.642Z,78.92
2023-04-28T19:32:23.280Z,80.96
2023-04-28T19:34:50.439Z,82.57
2023-04-28T19:37:17.232Z,84.04
2023-04-28T19:39:44.452Z,83.77
2023-04-28T19:42:11.017Z,83.04
2023-04-28T19:44:37.836Z,82.47
2023-04-28T19:47:05.133Z,81.34
2023-04-28T19:49:33.374Z,80.82
2023-04-28T19:52:00.196Z,80.56
2023-04-28T19:54:26.977Z,82.64
2023-04-28T19:56:53.862Z,82.46
2023-04-28T19:59:20.991Z,84.82
2023-04-28T20:01:48.047Z,84.55
2023-04-28T20:04:14.790Z,85.77
2023-04-28T20:06:42.930Z,85.98
2023-04-28T20:09:10.138Z,88.09
2023-04-28T20:11:37.380Z,86.56
2023-04-28T20:14:03.987Z,86.65
2023-04-28T20:16:30.553Z,86.21
2023-04-28T20:18:57.228Z,87.64
2023-04-28T20:21:23.836Z,87.56
2023-04-28T20:23:50.705Z,87.16
2023-04-28T20:26:17.538Z,87.52
2023-04-28T20:28:45.614Z,87.62
2023-04-28T20:31:12.284Z,87.32
2023-04-28T20:33:38.876Z,88.25
2023-04-28T20:36:05.624Z,88.90
2023-04-28T20:38:33.432Z,89.68
2023-04-28T20:41:00.029Z,90.71
2023-04-28T20:43:26.917Z,87.14
2023-04-28T20:45:53.531Z,87.98
2023-04-28T20:48:20.107Z,88.83
2023-04-28T20:50:48.629Z,88.10
2023-04-28T20:53:15.171Z,88.69
2023-04-28T20:55:41.731Z,88.36
2023-04-28T20:58:08.255Z,88.31
2023-04-28T21:00:39.879Z,88.79
2023-04-28T21:03:06.942Z,88.25
2023-04-28T21:05:33.765Z,88.75
2023-04-28T21:08:00.312Z,87.89
2023-04-28T21:10:27.924Z,89.93
2023-04-28T21:12:54.502Z,88.56
2023-04-28T21:15:21.075Z,87.79
2023-04-28T21:17:47.826Z,90.47
2023-04-28T21:20:14.923Z,91.14
2023-04-28T21:22:41.474Z,89.32
2023-04-28T21:25:08.675Z,91.26
2023-04-28T21:27:35.262Z,91.18
2023-04-28T21:30:02.166Z,91.08
2023-04-28T21:32:28.769Z,91.17
2023-04-28T21:34:55.469Z,90.11
2023-04-28T21:37:22.360Z,91.52
2023-04-28T21:39:49.265Z,89.85
2023-04-28T21:42:15.953Z,89.76
2023-04-28T21:44:42.534Z,91.58
2023-04-28T21:47:09.193Z,91.61
2023-04-28T21:49:36.197Z,90.50
2023-04-28T21:52:03.276Z,92.42
2023-04-28T21:54:30.087Z,92.39
2023-04-28T21:56:56.618Z,94.89
2023-04-28T21:59:23.184Z,96.06
2023-04-28T22:01:49.975Z,96.06
2023-04-28T22:04:17.158Z,95.18
2023-04-28T22:06:45.088Z,95.81
2023-04-28T22:09:11.657Z,96.91
2023-04-28T22:11:38.204Z,96.31
2023-04-28T22:14:04.948Z,96.46
2023-04-28T22:16:31.587Z,97.05
2023-04-28T22:18:58.333Z,97.90
2023-04-28T22:21:25.487Z,97.31
2023-04-28T22:23:52.020Z,95.96
2023-04-28T22:26:19.209Z,97.33
2023-04-28T22:28:45.873Z,97.99
2023-04-28T22:31:13.331Z,97.93
2023-04-28T22:33:40.536Z,98.16
2023-04-28T22:36:07.395Z,97.76
2023-04-28T22:38:34.650Z,96.01
2023-04-28T22:41:01.650Z,95.86
2023-04-28T22:43:28.869Z,96.45
2023-04-28T22:45:57.353Z,94.68
2023-04-28T22:48:24.146Z,95.49
2023-04-28T22:50:51.067Z,97.04
2023-04-28T22:53:19.544Z,96.98
2023-04-28T22:55:46.240Z,97.01
2023-04-28T22:58:12.807Z,96.49
2023-04-28T23:00:39.293Z,96.73
2023-04-28T23:03:05.893Z,97.18
2023-04-28T23:05:32.475Z,97.15
2023-04-28T23:07:59.019Z,96.60
2023-04-28T23:10:25.666Z,96.28
2023-04-28T23:12:52.619Z,97.24
2023-04-28T23:15:19.288Z,96.89
2023-04-28T23:17:45.902Z,97.05
2023-04-28T23:20:12.608Z,97.01
2023-04-28T23:22:39.118Z,96.15
2023-04-28T23:25:06.150Z,96.18
2023-04-28T23:27:32.625Z,96.86
2023-04-28T23:29:59.248Z,96.62
2023-04-28T23:32:25.802Z,97.66
2023-04-28T23:34:53.017Z,97.63
2023-04-28T23:37:19.567Z,96.77
2023-04-28T23:39:46.110Z,97.54
2023-04-28T23:42:12.751Z,98.26
2023-04-28T23:44:39.321Z,97.73
2023-04-28T23:47:05.830Z,97.36
2023-04-28T23:49:32.381Z,98.78
2023-04-28T23:51:59.445Z,98.82
2023-04-28T23:54:26.038Z,97.69
2023-04-28T23:56:52.579Z,97.22
2023-04-28T23:59:19.119Z,96.85
